sensor_id;sensor_type;location;lat;lon;timestamp;P1;durP1;ratioP1;P2;durP2;ratioP2
791;SDS011;379;49.022;12.148;2024-03-23T00:54:07;4.63;;;2.37;;
791;SDS011;379;49.022;12.148;2024-03-23T00:56:34;3.80;;;3.00;;
791;SDS011;379;49.022;12.148;2024-03-23T00:59:00;4.30;;;2.80;;
791;SDS011;379;49.022;12.148;2024-03-23T01:01:26;3.40;;;2.17;;
791;SDS011;379;49.022;12.148;2024-03-23T01:03:52;3.73;;;3.27;;
791;SDS011;379;49.022;12.148;2024-03-23T01:06:19;5.10;;;3.50;;
791;SDS011;379;49.022;12.148;2024-03-23T01:08:45;8.00;;;3.60;;
791;SDS011;379;49.022;12.148;2024-03-23T01:11:13;4.10;;;2.90;;
791;SDS011;379;49.022;12.148;2024-03-23T01:13:39;4.90;;;3.67;;
791;SDS011;379;49.022;12.148;2024-03-23T01:16:06;4.00;;;3.43;;
791;SDS011;379;49.022;12.148;2024-03-23T01:18:31;7.23;;;3.90;;
791;SDS011;379;49.022;12.148;2024-03-23T01:20:59;3.97;;;3.13;;
791;SDS011;379;49.022;12.148;2024-03-23T01:23:25;3.20;;;2.77;;
791;SDS011;379;49.022;12.148;2024-03-23T01:25:51;4.27;;;3.67;;
791;SDS011;379;49.022;12.148;2024-03-23T01:28:20;5.60;;;4.10;;
791;SDS011;379;49.022;12.148;2024-03-23T01:30:46;2.13;;;2.00;;
791;SDS011;379;49.022;12.148;2024-03-23T01:33:14;5.17;;;4.70;;
791;SDS011;379;49.022;12.148;2024-03-23T01:35:39;5.40;;;3.00;;
791;SDS011;379;49.022;12.148;2024-03-23T01:38:06;3.37;;;2.40;;
791;SDS011;379;49.022;12.148;2024-03-23T01:40:32;7.70;;;3.50;;
791;SDS011;379;49.022;12.148;2024-03-23T01:43:03;5.10;;;3.17;;
791;SDS011;379;49.022;12.148;2024-03-23T01:45:31;5.17;;;3.00;;
791;SDS011;379;49.022;12.148;2024-03-23T01:47:58;5.20;;;3.93;;
791;SDS011;379;49.022;12.148;2024-03-23T01:50:24;9.63;;;5.97;;
791;SDS011;379;49.022;12.148;2024-03-23T01:52:51;13.03;;;3.60;;
791;SDS011;379;49.022;12.148;2024-03-23T01:55:18;6.03;;;3.60;;
791;SDS011;379;49.022;12.148;2024-03-23T01:57:45;5.03;;;2.73;;
791;SDS011;379;49.022;12.148;2024-03-23T02:00:11;6.70;;;5.87;;
791;SDS011;379;49.022;12.148;2024-03-23T02:02:42;4.17;;;3.17;;
791;SDS011;379;49.022;12.148;2024-03-23T02:05:09;7.33;;;4.63;;
791;SDS011;379;49.022;12.148;2024-03-23T02:07:36;3.30;;;2.30;;
791;SDS011;379;49.022;12.148;2024-03-23T02:10:03;3.60;;;3.30;;
791;SDS011;379;49.022;12.148;2024-03-23T02:12:30;6.53;;;4.30;;
791;SDS011;379;49.022;12.148;2024-03-23T02:14:56;4.93;;;3.23;;
791;SDS011;379;49.022;12.148;2024-03-23T02:17:23;3.80;;;3.50;;
791;SDS011;379;49.022;12.148;2024-03-23T02:19:50;7.87;;;4.50;;
791;SDS011;379;49.022;12.148;2024-03-23T02:22:17;2.70;;;2.50;;
791;SDS011;379;49.022;12.148;2024-03-23T02:24:44;4.70;;;3.30;;
791;SDS011;379;49.022;12.148;2024-03-23T02:27:11;5.70;;;4.17;;
791;SDS011;379;49.022;12.148;2024-03-23T02:29:37;6.70;;;3.70;;
791;SDS011;379;49.022;12.148;2024-03-23T02:32:04;6.40;;;2.87;;
791;SDS011;379;49.022;12.148;2024-03-23T02:34:30;4.90;;;2.50;;
791;SDS011;379;49.022;12.148;2024-03-23T02:36:57;5.70;;;3.10;;
791;SDS011;379;49.022;12.148;2024-03-23T02:39:23;6.33;;;4.27;;
791;SDS011;379;49.022;12.148;2024-03-23T02:41:51;5.63;;;3.97;;
791;SDS011;379;49.022;12.148;2024-03-23T02:44:16;8.60;;;4.50;;
791;SDS011;379;49.022;12.148;2024-03-23T02:46:43;5.53;;;5.07;;
791;SDS011;379;49.022;12.148;2024-03-23T02:49:09;5.73;;;3.10;;
791;SDS011;379;49.022;12.148;2024-03-23T02:51:36;5.30;;;3.17;;
791;SDS011;379;49.022;12.148;2024-03-23T02:54:01;4.67;;;3.20;;
791;SDS011;379;49.022;12.148;2024-03-23T02:56:28;1.50;;;1.40;;
791;SDS011;379;49.022;12.148;2024-03-23T02:58:56;2.53;;;2.10;;
791;SDS011;379;49.022;12.148;2024-03-23T03:01:22;3.33;;;2.87;;
791;SDS011;379;49.022;12.148;2024-03-23T03:03:48;2.60;;;2.40;;
791;SDS011;379;49.022;12.148;2024-03-23T03:06:22;3.00;;;2.43;;
791;SDS011;379;49.022;12.148;2024-03-23T03:08:48;7.27;;;3.67;;
791;SDS011;379;49.022;12.148;2024-03-23T03:11:15;3.27;;;2.50;;
791;SDS011;379;49.022;12.148;2024-03-23T03:13:41;14.97;;;4.10;;
791;SDS011;379;49.022;12.148;2024-03-23T03:16:09;9.63;;;4.73;;
791;SDS011;379;49.022;12.148;2024-03-23T03:18:35;6.87;;;4.27;;
791;SDS011;379;49.022;12.148;2024-03-23T03:21:02;4.57;;;3.00;;
791;SDS011;379;49.022;12.148;2024-03-23T03:23:30;6.67;;;5.80;;
791;SDS011;379;49.022;12.148;2024-03-23T03:25:57;6.80;;;5.43;;
791;SDS011;379;49.022;12.148;2024-03-23T03:28:23;5.00;;;2.93;;
791;SDS011;379;49.022;12.148;2024-03-23T03:30:51;4.57;;;2.87;;
791;SDS011;379;49.022;12.148;2024-03-23T03:33:18;4.30;;;3.80;;
791;SDS011;379;49.022;12.148;2024-03-23T03:35:45;2.30;;;2.10;;
791;SDS011;379;49.022;12.148;2024-03-23T03:38:10;7.67;;;3.20;;
791;SDS011;379;49.022;12.148;2024-03-23T03:40:37;7.53;;;3.57;;
791;SDS011;379;49.022;12.148;2024-03-23T03:43:03;4.57;;;3.60;;
791;SDS011;379;49.022;12.148;2024-03-23T03:45:30;4.40;;;4.00;;
791;SDS011;379;49.022;12.148;2024-03-23T03:47:55;4.47;;;3.10;;
791;SDS011;379;49.022;12.148;2024-03-23T03:50:24;4.93;;;2.50;;
791;SDS011;379;49.022;12.148;2024-03-23T03:52:50;4.53;;;2.40;;
791;SDS011;379;49.022;12.148;2024-03-23T03:55:17;4.33;;;3.60;;
791;SDS011;379;49.022;12.148;2024-03-23T03:57:42;3.47;;;2.97;;
791;SDS011;379;49.022;12.148;2024-03-23T04:00:10;3.73;;;2.83;;
791;SDS011;379;49.022;12.148;2024-03-23T04:02:36;5.27;;;4.13;;
791;SDS011;379;49.022;12.148;2024-03-23T04:05:03;6.83;;;3.20;;
791;SDS011;379;49.022;12.148;2024-03-23T04:07:30;5.83;;;3.63;;
791;SDS011;379;49.022;12.148;2024-03-23T04:09:57;4.23;;;2.43;;
791;SDS011;379;49.022;12.148;2024-03-23T04:12:23;6.07;;;3.77;;
791;SDS011;379;49.022;12.148;2024-03-23T04:14:49;7.73;;;2.90;;
791;SDS011;379;49.022;12.148;2024-03-23T04:17:15;8.20;;;4.83;;
791;SDS011;379;49.022;12.148;2024-03-23T04:19:43;4.33;;;2.87;;
791;SDS011;379;49.022;12.148;2024-03-23T04:22:09;3.07;;;2.13;;
791;SDS011;379;49.022;12.148;2024-03-23T04:24:37;3.10;;;2.90;;
791;SDS011;379;49.022;12.148;2024-03-23T04:27:03;2.67;;;1.90;;
791;SDS011;379;49.022;12.148;2024-03-23T04:29:30;5.23;;;3.73;;
791;SDS011;379;49.022;12.148;2024-03-23T04:31:56;4.40;;;3.10;;
791;SDS011;379;49.022;12.148;2024-03-23T04:34:23;5.10;;;4.17;;
791;SDS011;379;49.022;12.148;2024-03-23T04:36:49;3.90;;;2.80;;
791;SDS011;379;49.022;12.148;2024-03-23T04:39:15;3.17;;;2.60;;
791;SDS011;379;49.022;12.148;2024-03-23T04:41:44;6.37;;;3.93;;
791;SDS011;379;49.022;12.148;2024-03-23T04:44:10;3.50;;;2.47;;
791;SDS011;379;49.022;12.148;2024-03-23T04:46:37;7.73;;;6.10;;
791;SDS011;379;49.022;12.148;2024-03-23T04:49:04;4.60;;;3.07;;
791;SDS011;379;49.022;12.148;2024-03-23T04:51:35;2.17;;;1.73;;
791;SDS011;379;49.022;12.148;2024-03-23T04:54:02;3.60;;;3.03;;
791;SDS011;379;49.022;12.148;2024-03-23T04:56:30;3.77;;;2.97;;
791;SDS011;379;49.022;12.148;2024-03-23T04:58:59;3.97;;;3.57;;
791;SDS011;379;49.022;12.148;2024-03-23T05:01:26;5.53;;;4.00;;
791;SDS011;379;49.022;12.148;2024-03-23T05:03:53;5.63;;;4.23;;
791;SDS011;379;49.022;12.148;2024-03-23T05:06:19;5.40;;;3.57;;
791;SDS011;379;49.022;12.148;2024-03-23T05:08:46;5.70;;;2.57;;
791;SDS011;379;49.022;12.148;2024-03-23T05:11:11;4.13;;;3.13;;
791;SDS011;379;49.022;12.148;2024-03-23T05:13:38;4.13;;;3.83;;
791;SDS011;379;49.022;12.148;2024-03-23T05:16:06;5.60;;;2.80;;
791;SDS011;379;49.022;12.148;2024-03-23T05:18:33;4.03;;;1.57;;
791;SDS011;379;49.022;12.148;2024-03-23T05:21:00;5.90;;;3.53;;
791;SDS011;379;49.022;12.148;2024-03-23T05:23:27;4.10;;;3.07;;
791;SDS011;379;49.022;12.148;2024-03-23T05:25:55;8.17;;;2.80;;
791;SDS011;379;49.022;12.148;2024-03-23T05:28:21;3.43;;;2.83;;
791;SDS011;379;49.022;12.148;2024-03-23T05:30:50;6.23;;;4.07;;
791;SDS011;379;49.022;12.148;2024-03-23T05:33:17;3.40;;;3.20;;
791;SDS011;379;49.022;12.148;2024-03-23T05:35:44;2.70;;;1.70;;
791;SDS011;379;49.022;12.148;2024-03-23T05:38:10;3.30;;;2.20;;
791;SDS011;379;49.022;12.148;2024-03-23T05:40:36;2.20;;;1.30;;
791;SDS011;379;49.022;12.148;2024-03-23T05:43:05;7.37;;;5.37;;
791;SDS011;379;49.022;12.148;2024-03-23T05:45:31;5.90;;;3.70;;
791;SDS011;379;49.022;12.148;2024-03-23T05:47:57;2.83;;;2.40;;
791;SDS011;379;49.022;12.148;2024-03-23T05:50:25;4.17;;;3.13;;
791;SDS011;379;49.022;12.148;2024-03-23T05:52:51;4.17;;;2.70;;
791;SDS011;379;49.022;12.148;2024-03-23T05:55:18;2.60;;;2.40;;
791;SDS011;379;49.022;12.148;2024-03-23T05:57:44;2.20;;;1.93;;
791;SDS011;379;49.022;12.148;2024-03-23T06:00:11;1.70;;;1.60;;
791;SDS011;379;49.022;12.148;2024-03-23T06:02:41;3.80;;;2.93;;
791;SDS011;379;49.022;12.148;2024-03-23T06:05:09;2.30;;;2.00;;
791;SDS011;379;49.022;12.148;2024-03-23T06:07:36;3.37;;;2.40;;
791;SDS011;379;49.022;12.148;2024-03-23T06:10:04;5.30;;;2.40;;
791;SDS011;379;49.022;12.148;2024-03-23T06:12:30;4.67;;;4.27;;
791;SDS011;379;49.022;12.148;2024-03-23T06:14:57;4.37;;;3.33;;
791;SDS011;379;49.022;12.148;2024-03-23T06:17:23;3.87;;;3.00;;
791;SDS011;379;49.022;12.148;2024-03-23T06:19:50;3.93;;;3.60;;
791;SDS011;379;49.022;12.148;2024-03-23T06:22:15;3.40;;;2.83;;
791;SDS011;379;49.022;12.148;2024-03-23T06:24:44;3.47;;;2.40;;
791;SDS011;379;49.022;12.148;2024-03-23T06:27:09;4.47;;;3.90;;
791;SDS011;379;49.022;12.148;2024-03-23T06:29:36;3.23;;;2.40;;
791;SDS011;379;49.022;12.148;2024-03-23T06:32:02;2.60;;;1.73;;
791;SDS011;379;49.022;12.148;2024-03-23T06:34:29;2.67;;;2.47;;
791;SDS011;379;49.022;12.148;2024-03-23T06:36:55;2.10;;;1.90;;
791;SDS011;379;49.022;12.148;2024-03-23T06:39:22;3.50;;;2.80;;
791;SDS011;379;49.022;12.148;2024-03-23T06:41:52;4.97;;;3.67;;
791;SDS011;379;49.022;12.148;2024-03-23T06:44:19;4.60;;;3.60;;
791;SDS011;379;49.022;12.148;2024-03-23T06:46:46;4.03;;;3.63;;
791;SDS011;379;49.022;12.148;2024-03-23T06:49:13;6.23;;;3.27;;
791;SDS011;379;49.022;12.148;2024-03-23T06:51:40;3.70;;;2.87;;
791;SDS011;379;49.022;12.148;2024-03-23T06:54:07;3.63;;;2.43;;
791;SDS011;379;49.022;12.148;2024-03-23T06:56:33;6.90;;;3.70;;
791;SDS011;379;49.022;12.148;2024-03-23T06:59:01;3.50;;;2.90;;
791;SDS011;379;49.022;12.148;2024-03-23T07:01:27;2.77;;;2.40;;
791;SDS011;379;49.022;12.148;2024-03-23T07:03:54;3.33;;;2.90;;
791;SDS011;379;49.022;12.148;2024-03-23T07:06:20;5.47;;;2.20;;
791;SDS011;379;49.022;12.148;2024-03-23T07:08:47;3.17;;;2.87;;
791;SDS011;379;49.022;12.148;2024-03-23T07:11:17;3.47;;;3.17;;
791;SDS011;379;49.022;12.148;2024-03-23T07:13:45;2.47;;;2.10;;
791;SDS011;379;49.022;12.148;2024-03-23T07:16:12;4.93;;;3.00;;
791;SDS011;379;49.022;12.148;2024-03-23T07:18:39;2.80;;;2.60;;
791;SDS011;379;49.022;12.148;2024-03-23T07:21:05;19.70;;;3.60;;
791;SDS011;379;49.022;12.148;2024-03-23T07:23:32;4.60;;;4.13;;
791;SDS011;379;49.022;12.148;2024-03-23T07:25:58;2.97;;;2.30;;
791;SDS011;379;49.022;12.148;2024-03-23T07:28:25;3.60;;;3.07;;
791;SDS011;379;49.022;12.148;2024-03-23T07:31:02;1.60;;;1.50;;
791;SDS011;379;49.022;12.148;2024-03-23T07:33:31;2.80;;;2.43;;
791;SDS011;379;49.022;12.148;2024-03-23T07:35:58;4.50;;;3.63;;
791;SDS011;379;49.022;12.148;2024-03-23T07:38:26;2.00;;;1.80;;
791;SDS011;379;49.022;12.148;2024-03-23T07:41:02;2.93;;;2.53;;
791;SDS011;379;49.022;12.148;2024-03-23T07:43:29;3.17;;;2.87;;
791;SDS011;379;49.022;12.148;2024-03-23T07:45:55;2.80;;;2.53;;
791;SDS011;379;49.022;12.148;2024-03-23T07:48:22;2.93;;;2.17;;
791;SDS011;379;49.022;12.148;2024-03-23T07:50:56;3.90;;;3.20;;
791;SDS011;379;49.022;12.148;2024-03-23T07:53:27;3.40;;;2.20;;
791;SDS011;379;49.022;12.148;2024-03-23T07:55:56;1.97;;;1.67;;
791;SDS011;379;49.022;12.148;2024-03-23T07:58:24;2.73;;;1.80;;
791;SDS011;379;49.022;12.148;2024-03-23T08:00:50;2.33;;;1.73;;
791;SDS011;379;49.022;12.148;2024-03-23T08:03:17;1.90;;;1.43;;
791;SDS011;379;49.022;12.148;2024-03-23T08:05:43;4.40;;;3.13;;
791;SDS011;379;49.022;12.148;2024-03-23T08:08:11;1.50;;;1.30;;
791;SDS011;379;49.022;12.148;2024-03-23T08:10:37;2.10;;;1.07;;
791;SDS011;379;49.022;12.148;2024-03-23T08:13:04;1.73;;;1.10;;
791;SDS011;379;49.022;12.148;2024-03-23T08:15:31;0.90;;;0.90;;
791;SDS011;379;49.022;12.148;2024-03-23T08:17:59;1.27;;;0.80;;
791;SDS011;379;49.022;12.148;2024-03-23T08:20:25;2.50;;;1.30;;
791;SDS011;379;49.022;12.148;2024-03-23T08:22:52;1.00;;;0.50;;
791;SDS011;379;49.022;12.148;2024-03-23T08:25:19;0.90;;;0.70;;
791;SDS011;379;49.022;12.148;2024-03-23T08:27:46;0.97;;;0.60;;
791;SDS011;379;49.022;12.148;2024-03-23T08:30:12;2.40;;;1.60;;
791;SDS011;379;49.022;12.148;2024-03-23T08:32:38;1.67;;;0.90;;
791;SDS011;379;49.022;12.148;2024-03-23T08:35:05;1.10;;;0.60;;
791;SDS011;379;49.022;12.148;2024-03-23T08:37:32;2.10;;;1.90;;
791;SDS011;379;49.022;12.148;2024-03-23T08:39:58;0.93;;;0.77;;
791;SDS011;379;49.022;12.148;2024-03-23T08:42:26;1.13;;;0.80;;
791;SDS011;379;49.022;12.148;2024-03-23T08:44:52;1.27;;;1.10;;
791;SDS011;379;49.022;12.148;2024-03-23T08:47:19;0.93;;;0.73;;
791;SDS011;379;49.022;12.148;2024-03-23T08:49:44;1.10;;;0.60;;
791;SDS011;379;49.022;12.148;2024-03-23T08:52:11;1.30;;;0.90;;
791;SDS011;379;49.022;12.148;2024-03-23T08:54:37;0.60;;;0.30;;
791;SDS011;379;49.022;12.148;2024-03-23T08:57:04;0.80;;;0.77;;
791;SDS011;379;49.022;12.148;2024-03-23T08:59:31;1.07;;;0.77;;
791;SDS011;379;49.022;12.148;2024-03-23T09:01:57;1.30;;;0.53;;
791;SDS011;379;49.022;12.148;2024-03-23T09:04:23;1.10;;;0.73;;
791;SDS011;379;49.022;12.148;2024-03-23T09:06:50;0.80;;;0.43;;
791;SDS011;379;49.022;12.148;2024-03-23T09:09:16;1.63;;;1.53;;
791;SDS011;379;49.022;12.148;2024-03-23T09:11:45;1.00;;;0.70;;
791;SDS011;379;49.022;12.148;2024-03-23T09:14:10;0.90;;;0.80;;
791;SDS011;379;49.022;12.148;2024-03-23T09:16:39;1.03;;;0.77;;
791;SDS011;379;49.022;12.148;2024-03-23T09:19:04;2.03;;;0.90;;
791;SDS011;379;49.022;12.148;2024-03-23T09:21:31;3.00;;;0.87;;
791;SDS011;379;49.022;12.148;2024-03-23T09:23:57;1.17;;;0.83;;
791;SDS011;379;49.022;12.148;2024-03-23T09:26:23;0.60;;;0.40;;
791;SDS011;379;49.022;12.148;2024-03-23T09:28:49;1.67;;;1.33;;
791;SDS011;379;49.022;12.148;2024-03-23T09:31:16;3.43;;;0.83;;
791;SDS011;379;49.022;12.148;2024-03-23T09:33:44;1.10;;;0.83;;
791;SDS011;379;49.022;12.148;2024-03-23T09:36:11;1.63;;;0.90;;
791;SDS011;379;49.022;12.148;2024-03-23T09:38:37;1.73;;;1.63;;
791;SDS011;379;49.022;12.148;2024-03-23T09:41:06;2.10;;;1.10;;
791;SDS011;379;49.022;12.148;2024-03-23T09:43:33;1.60;;;0.80;;
791;SDS011;379;49.022;12.148;2024-03-23T09:46:01;1.13;;;0.90;;
791;SDS011;379;49.022;12.148;2024-03-23T09:48:27;4.17;;;1.80;;
791;SDS011;379;49.022;12.148;2024-03-23T09:50:55;0.80;;;0.60;;
791;SDS011;379;49.022;12.148;2024-03-23T09:53:21;1.00;;;0.90;;
791;SDS011;379;49.022;12.148;2024-03-23T09:55:48;2.27;;;1.07;;
791;SDS011;379;49.022;12.148;2024-03-23T09:58:15;2.50;;;1.03;;
791;SDS011;379;49.022;12.148;2024-03-23T10:00:42;0.70;;;0.50;;
791;SDS011;379;49.022;12.148;2024-03-23T10:03:08;1.53;;;0.60;;
791;SDS011;379;49.022;12.148;2024-03-23T10:05:36;0.87;;;0.53;;
791;SDS011;379;49.022;12.148;2024-03-23T10:08:04;1.63;;;1.00;;
791;SDS011;379;49.022;12.148;2024-03-23T10:10:44;0.60;;;0.60;;
791;SDS011;379;49.022;12.148;2024-03-23T10:13:11;1.00;;;0.60;;
791;SDS011;379;49.022;12.148;2024-03-23T10:15:51;1.10;;;1.00;;
791;SDS011;379;49.022;12.148;2024-03-23T10:18:21;0.50;;;0.40;;
791;SDS011;379;49.022;12.148;2024-03-23T10:20:50;0.80;;;0.40;;
791;SDS011;379;49.022;12.148;2024-03-23T10:23:18;1.07;;;0.97;;
791;SDS011;379;49.022;12.148;2024-03-23T10:25:46;1.30;;;0.53;;
791;SDS011;379;49.022;12.148;2024-03-23T10:28:12;1.37;;;0.70;;
791;SDS011;379;49.022;12.148;2024-03-23T10:30:38;0.60;;;0.40;;
791;SDS011;379;49.022;12.148;2024-03-23T10:33:07;0.60;;;0.50;;
791;SDS011;379;49.022;12.148;2024-03-23T10:35:36;0.80;;;0.50;;
791;SDS011;379;49.022;12.148;2024-03-23T10:38:02;0.80;;;0.53;;
791;SDS011;379;49.022;12.148;2024-03-23T10:40:34;0.60;;;0.50;;
791;SDS011;379;49.022;12.148;2024-03-23T10:43:00;0.70;;;0.60;;
791;SDS011;379;49.022;12.148;2024-03-23T10:45:30;1.00;;;0.43;;
791;SDS011;379;49.022;12.148;2024-03-23T10:47:56;0.70;;;0.40;;
791;SDS011;379;49.022;12.148;2024-03-23T10:50:22;0.60;;;0.40;;
791;SDS011;379;49.022;12.148;2024-03-23T10:52:48;0.60;;;0.30;;
791;SDS011;379;49.022;12.148;2024-03-23T10:55:15;0.60;;;0.50;;
791;SDS011;379;49.022;12.148;2024-03-23T10:57:47;0.60;;;0.40;;
791;SDS011;379;49.022;12.148;2024-03-23T11:00:17;0.70;;;0.40;;
791;SDS011;379;49.022;12.148;2024-03-23T11:02:43;0.60;;;0.30;;
791;SDS011;379;49.022;12.148;2024-03-23T11:05:27;0.80;;;0.40;;
791;SDS011;379;49.022;12.148;2024-03-23T11:07:54;0.90;;;0.80;;
791;SDS011;379;49.022;12.148;2024-03-23T11:10:24;1.67;;;0.80;;
791;SDS011;379;49.022;12.148;2024-03-23T11:12:52;0.80;;;0.50;;
791;SDS011;379;49.022;12.148;2024-03-23T11:15:19;1.33;;;0.50;;
791;SDS011;379;49.022;12.148;2024-03-23T11:20:31;0.87;;;0.43;;
791;SDS011;379;49.022;12.148;2024-03-23T11:22:57;0.50;;;0.30;;
791;SDS011;379;49.022;12.148;2024-03-23T11:25:24;0.70;;;0.50;;
791;SDS011;379;49.022;12.148;2024-03-23T11:27:52;0.70;;;0.60;;
791;SDS011;379;49.022;12.148;2024-03-23T11:30:22;1.33;;;1.23;;
791;SDS011;379;49.022;12.148;2024-03-23T11:32:49;0.73;;;0.47;;
791;SDS011;379;49.022;12.148;2024-03-23T11:35:26;0.90;;;0.60;;
791;SDS011;379;49.022;12.148;2024-03-23T11:38:05;0.73;;;0.47;;
791;SDS011;379;49.022;12.148;2024-03-23T11:40:32;0.53;;;0.37;;
791;SDS011;379;49.022;12.148;2024-03-23T11:43:00;0.50;;;0.30;;
791;SDS011;379;49.022;12.148;2024-03-23T11:45:29;0.60;;;0.57;;
791;SDS011;379;49.022;12.148;2024-03-23T11:48:05;1.20;;;0.50;;
791;SDS011;379;49.022;12.148;2024-03-23T11:50:33;0.60;;;0.37;;
791;SDS011;379;49.022;12.148;2024-03-23T11:53:08;0.90;;;0.60;;
791;SDS011;379;49.022;12.148;2024-03-23T11:55:40;0.50;;;0.30;;
791;SDS011;379;49.022;12.148;2024-03-23T11:58:13;1.13;;;0.60;;
791;SDS011;379;49.022;12.148;2024-03-23T12:00:41;1.47;;;0.50;;
791;SDS011;379;49.022;12.148;2024-03-23T12:03:07;0.70;;;0.50;;
791;SDS011;379;49.022;12.148;2024-03-23T12:05:35;0.60;;;0.40;;
791;SDS011;379;49.022;12.148;2024-03-23T12:08:21;1.30;;;0.60;;
791;SDS011;379;49.022;12.148;2024-03-23T12:10:49;0.60;;;0.40;;
791;SDS011;379;49.022;12.148;2024-03-23T12:13:18;0.87;;;0.40;;
791;SDS011;379;49.022;12.148;2024-03-23T12:15:46;4.00;;;0.77;;
791;SDS011;379;49.022;12.148;2024-03-23T12:18:14;1.13;;;0.63;;
791;SDS011;379;49.022;12.148;2024-03-23T12:20:41;1.03;;;0.83;;
791;SDS011;379;49.022;12.148;2024-03-23T12:23:07;0.60;;;0.40;;
791;SDS011;379;49.022;12.148;2024-03-23T12:25:35;0.67;;;0.53;;
791;SDS011;379;49.022;12.148;2024-03-23T12:28:01;0.60;;;0.30;;
791;SDS011;379;49.022;12.148;2024-03-23T12:30:31;0.50;;;0.30;;
791;SDS011;379;49.022;12.148;2024-03-23T12:32:57;0.60;;;0.30;;
791;SDS011;379;49.022;12.148;2024-03-23T12:35:24;0.90;;;0.70;;
791;SDS011;379;49.022;12.148;2024-03-23T12:37:50;0.60;;;0.50;;
791;SDS011;379;49.022;12.148;2024-03-23T12:40:16;0.70;;;0.50;;
791;SDS011;379;49.022;12.148;2024-03-23T12:42:42;0.60;;;0.50;;
791;SDS011;379;49.022;12.148;2024-03-23T12:45:09;0.80;;;0.40;;
791;SDS011;379;49.022;12.148;2024-03-23T12:47:36;0.90;;;0.60;;
791;SDS011;379;49.022;12.148;2024-03-23T12:50:03;0.60;;;0.40;;
791;SDS011;379;49.022;12.148;2024-03-23T12:52:30;1.53;;;1.03;;
791;SDS011;379;49.022;12.148;2024-03-23T12:54:57;0.60;;;0.40;;
791;SDS011;379;49.022;12.148;2024-03-23T12:57:23;1.37;;;0.57;;
791;SDS011;379;49.022;12.148;2024-03-23T12:59:51;0.60;;;0.40;;
791;SDS011;379;49.022;12.148;2024-03-23T13:02:18;1.17;;;1.07;;
791;SDS011;379;49.022;12.148;2024-03-23T13:04:48;0.90;;;0.50;;
791;SDS011;379;49.022;12.148;2024-03-23T13:07:15;1.07;;;0.63;;
791;SDS011;379;49.022;12.148;2024-03-23T13:09:42;1.20;;;0.47;;
791;SDS011;379;49.022;12.148;2024-03-23T13:12:08;1.27;;;0.83;;
791;SDS011;379;49.022;12.148;2024-03-23T13:14:35;0.90;;;0.70;;
791;SDS011;379;49.022;12.148;2024-03-23T13:17:01;1.30;;;1.13;;
791;SDS011;379;49.022;12.148;2024-03-23T13:19:29;1.80;;;1.20;;
791;SDS011;379;49.022;12.148;2024-03-23T13:21:57;1.00;;;0.60;;
791;SDS011;379;49.022;12.148;2024-03-23T13:24:25;1.83;;;1.03;;
791;SDS011;379;49.022;12.148;2024-03-23T13:26:51;1.10;;;1.00;;
791;SDS011;379;49.022;12.148;2024-03-23T13:29:19;0.60;;;0.40;;
791;SDS011;379;49.022;12.148;2024-03-23T13:31:45;0.90;;;0.70;;
791;SDS011;379;49.022;12.148;2024-03-23T13:34:12;0.90;;;0.50;;
791;SDS011;379;49.022;12.148;2024-03-23T13:36:40;1.93;;;1.00;;
791;SDS011;379;49.022;12.148;2024-03-23T13:39:08;0.90;;;0.73;;
791;SDS011;379;49.022;12.148;2024-03-23T13:41:36;0.70;;;0.63;;
791;SDS011;379;49.022;12.148;2024-03-23T13:44:04;0.67;;;0.50;;
791;SDS011;379;49.022;12.148;2024-03-23T13:46:30;0.60;;;0.43;;
791;SDS011;379;49.022;12.148;2024-03-23T13:48:57;0.90;;;0.73;;
791;SDS011;379;49.022;12.148;2024-03-23T13:51:23;0.90;;;0.77;;
791;SDS011;379;49.022;12.148;2024-03-23T13:53:52;3.70;;;1.13;;
791;SDS011;379;49.022;12.148;2024-03-23T13:56:19;0.67;;;0.50;;
791;SDS011;379;49.022;12.148;2024-03-23T13:58:46;0.70;;;0.53;;
791;SDS011;379;49.022;12.148;2024-03-23T14:01:13;0.60;;;0.30;;
791;SDS011;379;49.022;12.148;2024-03-23T14:03:40;1.47;;;0.67;;
791;SDS011;379;49.022;12.148;2024-03-23T14:06:06;0.80;;;0.50;;
791;SDS011;379;49.022;12.148;2024-03-23T14:08:33;0.90;;;0.73;;
791;SDS011;379;49.022;12.148;2024-03-23T14:11:01;3.50;;;1.00;;
791;SDS011;379;49.022;12.148;2024-03-23T14:13:30;0.80;;;0.60;;
791;SDS011;379;49.022;12.148;2024-03-23T14:15:56;1.13;;;0.50;;
791;SDS011;379;49.022;12.148;2024-03-23T14:18:23;0.70;;;0.43;;
791;SDS011;379;49.022;12.148;2024-03-23T14:20:51;0.80;;;0.60;;
791;SDS011;379;49.022;12.148;2024-03-23T14:23:18;1.17;;;0.93;;
791;SDS011;379;49.022;12.148;2024-03-23T14:25:43;0.57;;;0.40;;
791;SDS011;379;49.022;12.148;2024-03-23T14:28:11;0.60;;;0.40;;
791;SDS011;379;49.022;12.148;2024-03-23T14:30:41;1.37;;;1.27;;
791;SDS011;379;49.022;12.148;2024-03-23T14:33:08;0.90;;;0.70;;
791;SDS011;379;49.022;12.148;2024-03-23T14:35:33;0.70;;;0.40;;
791;SDS011;379;49.022;12.148;2024-03-23T14:38:00;0.67;;;0.67;;
791;SDS011;379;49.022;12.148;2024-03-23T14:40:26;0.73;;;0.70;;
791;SDS011;379;49.022;12.148;2024-03-23T14:42:53;0.60;;;0.40;;
791;SDS011;379;49.022;12.148;2024-03-23T14:45:19;2.40;;;1.37;;
791;SDS011;379;49.022;12.148;2024-03-23T14:47:48;0.77;;;0.60;;
791;SDS011;379;49.022;12.148;2024-03-23T14:50:14;1.53;;;0.83;;
791;SDS011;379;49.022;12.148;2024-03-23T14:52:41;1.80;;;0.70;;
791;SDS011;379;49.022;12.148;2024-03-23T14:55:09;1.13;;;0.70;;
791;SDS011;379;49.022;12.148;2024-03-23T14:57:36;0.73;;;0.73;;
791;SDS011;379;49.022;12.148;2024-03-23T15:00:02;1.33;;;1.23;;
791;SDS011;379;49.022;12.148;2024-03-23T15:02:30;0.60;;;0.40;;
791;SDS011;379;49.022;12.148;2024-03-23T15:04:58;0.97;;;0.90;;
791;SDS011;379;49.022;12.148;2024-03-23T15:07:25;2.20;;;0.90;;
791;SDS011;379;49.022;12.148;2024-03-23T15:09:50;0.70;;;0.40;;
791;SDS011;379;49.022;12.148;2024-03-23T15:12:18;1.80;;;0.50;;
791;SDS011;379;49.022;12.148;2024-03-23T15:14:44;1.03;;;0.40;;
791;SDS011;379;49.022;12.148;2024-03-23T15:17:12;0.80;;;0.70;;
791;SDS011;379;49.022;12.148;2024-03-23T15:19:38;1.90;;;0.70;;
791;SDS011;379;49.022;12.148;2024-03-23T15:22:06;0.83;;;0.57;;
791;SDS011;379;49.022;12.148;2024-03-23T15:24:32;1.43;;;0.93;;
791;SDS011;379;49.022;12.148;2024-03-23T15:27:00;0.70;;;0.60;;
791;SDS011;379;49.022;12.148;2024-03-23T15:29:26;2.30;;;1.10;;
791;SDS011;379;49.022;12.148;2024-03-23T15:31:52;1.10;;;0.70;;
791;SDS011;379;49.022;12.148;2024-03-23T15:34:18;1.07;;;0.73;;
791;SDS011;379;49.022;12.148;2024-03-23T15:36:46;0.80;;;0.57;;
791;SDS011;379;49.022;12.148;2024-03-23T15:39:14;0.60;;;0.40;;
791;SDS011;379;49.022;12.148;2024-03-23T15:41:41;1.73;;;0.63;;
791;SDS011;379;49.022;12.148;2024-03-23T15:44:08;1.00;;;0.67;;
791;SDS011;379;49.022;12.148;2024-03-23T15:46:35;1.23;;;0.70;;
791;SDS011;379;49.022;12.148;2024-03-23T15:49:01;1.97;;;1.67;;
791;SDS011;379;49.022;12.148;2024-03-23T15:51:27;1.20;;;0.57;;
791;SDS011;379;49.022;12.148;2024-03-23T15:53:57;0.80;;;0.63;;
791;SDS011;379;49.022;12.148;2024-03-23T15:56:26;1.00;;;0.83;;
791;SDS011;379;49.022;12.148;2024-03-23T15:58:52;0.70;;;0.50;;
791;SDS011;379;49.022;12.148;2024-03-23T16:01:18;0.60;;;0.37;;
791;SDS011;379;49.022;12.148;2024-03-23T16:03:44;0.77;;;0.73;;
791;SDS011;379;49.022;12.148;2024-03-23T16:06:11;0.70;;;0.60;;
791;SDS011;379;49.022;12.148;2024-03-23T16:08:37;1.53;;;0.97;;
791;SDS011;379;49.022;12.148;2024-03-23T16:11:04;0.67;;;0.50;;
791;SDS011;379;49.022;12.148;2024-03-23T16:13:33;1.50;;;0.70;;
791;SDS011;379;49.022;12.148;2024-03-23T16:16:00;0.50;;;0.30;;
791;SDS011;379;49.022;12.148;2024-03-23T16:18:28;3.73;;;1.10;;
791;SDS011;379;49.022;12.148;2024-03-23T16:20:56;1.93;;;1.53;;
791;SDS011;379;49.022;12.148;2024-03-23T16:23:23;0.53;;;0.33;;
791;SDS011;379;49.022;12.148;2024-03-23T16:25:50;1.77;;;0.70;;